Time;durP1;ratioP1;P1;durP2;ratioP2;P2;SDS_P1;SDS_P2;PMS_P1;PMS_P2;Temp;Humidity;BMP_temperature;BMP_pressure;BME280_temperature;BME280_humidity;BME280_pressure;Samples;Min_cycle;Max_cycle;Signal;HPM_P1;HPM_P2
2022/05/30 00:00:06;;;;;;;5.72;0.93;;;8.80;99.90;;;;;;5093730;28;20066;-65
2022/05/30 00:02:33;;;;;;;8.13;1.38;;;8.80;99.90;;;;;;5076973;28;20040;-65
2022/05/30 00:04:59;;;;;;;6.95;1.98;;;8.80;99.90;;;;;;5109299;27;20098;-65
2022/05/30 00:07:25;;;;;;;8.15;1.42;;;8.80;99.90;;;;;;5089853;28;20053;-65
2022/05/30 00:09:51;;;;;;;4.18;0.77;;;8.70;99.90;;;;;;5107974;27;20036;-65
2022/05/30 00:12:16;;;;;;;6.60;1.17;;;8.70;99.90;;;;;;5072069;28;20092;-65
2022/05/30 00:14:42;;;;;;;7.05;1.08;;;8.70;99.90;;;;;;5096540;28;20089;-65
2022/05/30 00:17:08;;;;;;;7.88;1.55;;;8.70;99.90;;;;;;5069009;28;20046;-65
2022/05/30 00:19:38;;;;;;;6.13;1.17;;;8.70;99.90;;;;;;5089283;28;20036;-65
2022/05/30 00:22:05;;;;;;;7.78;1.50;;;8.60;99.90;;;;;;5097042;28;20039;-65
2022/05/30 00:24:32;;;;;;;5.45;1.17;;;8.60;99.90;;;;;;5092851;28;20409;-65
2022/05/30 00:26:57;;;;;;;11.68;2.05;;;8.50;99.90;;;;;;5098910;28;20050;-65
2022/05/30 00:29:24;;;;;;;10.27;1.30;;;8.50;99.90;;;;;;5095296;28;20032;-65
2022/05/30 00:31:50;;;;;;;4.47;1.30;;;8.50;99.90;;;;;;5097710;28;20118;-65
2022/05/30 00:34:17;;;;;;;6.50;1.30;;;8.40;99.90;;;;;;5074525;28;20810;-65
2022/05/30 00:36:43;;;;;;;9.80;1.13;;;8.40;99.90;;;;;;5070991;28;20036;-65
2022/05/30 00:39:09;;;;;;;6.85;1.90;;;8.40;99.90;;;;;;5079613;28;20056;-65
2022/05/30 00:41:34;;;;;;;8.75;1.98;;;8.40;99.90;;;;;;5078584;28;20043;-65
2022/05/30 00:44:00;;;;;;;7.30;1.77;;;8.30;99.90;;;;;;5066808;28;20682;-65
2022/05/30 00:46:26;;;;;;;10.52;1.73;;;8.40;99.90;;;;;;5106451;27;20047;-65
2022/05/30 00:48:55;;;;;;;7.63;1.30;;;8.40;99.90;;;;;;5096937;28;20032;-65
2022/05/30 00:51:33;;;;;;;6.22;1.45;;;8.30;99.90;;;;;;5098180;28;20040;-65
2022/05/30 00:54:02;;;;;;;7.55;1.08;;;8.30;99.90;;;;;;5076463;28;20123;-65
2022/05/30 00:56:31;;;;;;;7.70;0.93;;;8.30;99.90;;;;;;5069466;28;20142;-65
2022/05/30 00:58:58;;;;;;;11.32;1.27;;;8.20;99.90;;;;;;5090421;28;20510;-65
2022/05/30 01:01:24;;;;;;;7.13;1.63;;;8.20;99.90;;;;;;5091188;28;20036;-65
2022/05/30 01:06:43;;;;;;;9.70;1.77;;;8.00;99.90;;;;;;5071427;28;20052;-65
2022/05/30 01:09:16;;;;;;;6.45;1.10;;;8.00;99.90;;;;;;5072757;28;20036;-65
2022/05/30 01:11:52;;;;;;;8.80;1.50;;;7.90;99.90;;;;;;5102831;28;20051;-65
2022/05/30 01:14:18;;;;;;;7.68;1.63;;;7.90;99.90;;;;;;5073679;28;20138;-65
2022/05/30 01:16:44;;;;;;;8.95;1.30;;;7.90;99.90;;;;;;5071833;28;20054;-65
2022/05/30 01:19:34;;;;;;;7.10;1.58;;;7.80;99.90;;;;;;5072191;28;20036;-65
2022/05/30 01:22:23;;;;;;;6.70;1.33;;;7.80;99.90;;;;;;5088744;28;20134;-65
2022/05/30 01:25:12;;;;;;;7.57;1.23;;;7.90;99.90;;;;;;5073810;28;20047;-65
2022/05/30 01:27:59;;;;;;;10.32;1.70;;;7.80;99.90;;;;;;5104310;28;20059;-65
2022/05/30 01:30:26;;;;;;;6.97;1.30;;;7.80;99.90;;;;;;5088395;28;20543;-65
2022/05/30 01:32:57;;;;;;;10.48;1.80;;;7.70;99.90;;;;;;5089050;28;20128;-65
2022/05/30 01:35:24;;;;;;;8.13;1.40;;;7.70;99.90;;;;;;5072815;28;20104;-65
2022/05/30 01:37:50;;;;;;;9.48;1.48;;;7.70;99.90;;;;;;5086342;28;20469;-65
2022/05/30 01:40:16;;;;;;;6.18;1.65;;;7.70;99.90;;;;;;5069927;28;20067;-65
2022/05/30 01:42:41;;;;;;;6.88;1.85;;;7.70;99.90;;;;;;5079393;28;20039;-65
2022/05/30 01:45:08;;;;;;;8.65;1.95;;;7.70;99.90;;;;;;5094110;28;20826;-65
2022/05/30 01:47:34;;;;;;;7.57;1.42;;;7.80;99.90;;;;;;5073458;28;20043;-65
2022/05/30 01:50:00;;;;;;;8.95;1.48;;;7.80;99.90;;;;;;5090652;28;20766;-65
2022/05/30 01:52:28;;;;;;;6.88;1.73;;;7.80;99.90;;;;;;5087453;28;20040;-65
2022/05/30 01:54:54;;;;;;;5.90;1.20;;;7.80;99.90;;;;;;5072015;28;20047;-65
2022/05/30 01:57:20;;;;;;;9.32;2.47;;;7.80;99.90;;;;;;5077058;28;20131;-65
2022/05/30 01:59:45;;;;;;;7.03;1.40;;;7.80;99.90;;;;;;5076594;28;20044;-65
2022/05/30 02:02:12;;;;;;;4.97;1.60;;;7.80;99.90;;;;;;5073854;28;20039;-65
2022/05/30 02:04:38;;;;;;;7.60;1.70;;;7.80;99.90;;;;;;5092862;28;20082;-65
2022/05/30 02:07:04;;;;;;;6.90;1.90;;;7.80;99.90;;;;;;5078668;28;20123;-65
2022/05/30 02:09:30;;;;;;;9.50;2.53;;;7.80;99.90;;;;;;5092244;28;20060;-65
2022/05/30 02:11:56;;;;;;;8.52;1.40;;;7.80;99.90;;;;;;5101125;28;20469;-65
2022/05/30 02:14:22;;;;;;;8.85;1.88;;;7.80;99.90;;;;;;5107083;27;20486;-65
2022/05/30 02:17:06;;;;;;;8.60;1.65;;;7.70;99.90;;;;;;5093852;28;20088;-65
2022/05/30 02:19:38;;;;;;;10.13;1.52;;;7.70;99.90;;;;;;5076736;28;20044;-65
2022/05/30 02:22:05;;;;;;;6.75;1.40;;;7.80;99.90;;;;;;5099090;28;20071;-65
2022/05/30 02:24:31;;;;;;;6.15;1.70;;;7.60;99.90;;;;;;5075119;28;20040;-65
2022/05/30 02:26:57;;;;;;;5.63;1.10;;;7.50;99.90;;;;;;5088612;28;20035;-65
2022/05/30 02:29:23;;;;;;;5.18;1.33;;;7.50;99.90;;;;;;5076024;28;20597;-65
2022/05/30 02:31:48;;;;;;;6.13;1.42;;;7.50;99.90;;;;;;5075489;28;20158;-65
2022/05/30 02:36:59;;;;;;;5.07;1.63;;;7.50;99.90;;;;;;5074731;28;20040;-65
2022/05/30 02:39:26;;;;;;;4.65;1.50;;;7.40;99.90;;;;;;5095010;28;20032;-65
2022/05/30 02:41:52;;;;;;;5.65;2.20;;;7.40;99.90;;;;;;5092260;28;20043;-65
2022/05/30 02:44:20;;;;;;;3.92;1.05;;;7.40;99.90;;;;;;5092049;28;20034;-65
2022/05/30 02:46:47;;;;;;;5.35;1.10;;;7.30;99.90;;;;;;5111594;27;20471;-65
2022/05/30 02:49:13;;;;;;;5.57;1.42;;;7.30;99.90;;;;;;5094875;28;20398;-65
2022/05/30 02:51:38;;;;;;;5.22;1.35;;;7.30;99.90;;;;;;5073351;28;20047;-65
2022/05/30 02:54:04;;;;;;;4.57;1.10;;;7.30;99.90;;;;;;5078487;28;20040;-65
2022/05/30 02:56:30;;;;;;;3.35;0.90;;;7.30;99.90;;;;;;5076402;28;20048;-65
2022/05/30 02:59:00;;;;;;;4.93;1.00;;;7.20;99.90;;;;;;5094747;28;20119;-65
2022/05/30 03:01:26;;;;;;;7.68;1.20;;;7.20;99.90;;;;;;5098836;28;20028;-65
2022/05/30 03:03:52;;;;;;;7.72;1.17;;;7.10;99.90;;;;;;5075595;28;20088;-65
2022/05/30 03:06:18;;;;;;;6.88;1.30;;;7.00;99.90;;;;;;5076613;28;20044;-65
2022/05/30 03:08:43;;;;;;;4.90;1.00;;;7.00;99.90;;;;;;5077826;28;20572;-65
2022/05/30 03:11:10;;;;;;;4.22;1.38;;;7.00;99.90;;;;;;5110660;27;20040;-65
2022/05/30 03:13:36;;;;;;;6.65;1.38;;;7.00;99.90;;;;;;5071596;28;20051;-65
2022/05/30 03:16:03;;;;;;;7.40;1.75;;;7.00;99.90;;;;;;5061740;28;20082;-65
2022/05/30 03:18:28;;;;;;;4.78;1.27;;;6.90;99.90;;;;;;5073232;28;20048;-65
2022/05/30 03:20:54;;;;;;;3.70;1.02;;;6.90;99.90;;;;;;5110229;27;20043;-65
2022/05/30 03:23:19;;;;;;;2.42;0.95;;;6.80;99.90;;;;;;5081386;28;20038;-65
2022/05/30 03:25:45;;;;;;;4.10;1.45;;;6.80;99.90;;;;;;5074042;28;20036;-65
2022/05/30 03:28:11;;;;;;;5.95;1.45;;;6.70;99.90;;;;;;5093858;28;20039;-65
2022/05/30 03:30:37;;;;;;;6.97;1.30;;;6.70;99.90;;;;;;5078230;28;20493;-65
2022/05/30 03:33:08;;;;;;;5.20;1.55;;;6.70;99.90;;;;;;5069726;28;20047;-65
2022/05/30 03:35:35;;;;;;;5.15;1.85;;;6.70;99.90;;;;;;5098238;28;20114;-65
2022/05/30 03:38:05;;;;;;;4.55;1.33;;;6.80;99.90;;;;;;5097872;28;20435;-65
2022/05/30 03:40:30;;;;;;;5.30;1.23;;;6.70;99.90;;;;;;5090974;28;20062;-65
2022/05/30 03:42:56;;;;;;;8.85;1.83;;;6.70;99.90;;;;;;5077846;28;20043;-65
2022/05/30 03:45:22;;;;;;;2.67;1.30;;;6.70;99.90;;;;;;5095641;28;20031;-65
2022/05/30 03:47:48;;;;;;;5.03;1.23;;;6.60;99.90;;;;;;5098960;28;20035;-65
2022/05/30 03:50:25;;;;;;;6.03;1.42;;;6.70;99.90;;;;;;5093199;28;20036;-65
2022/05/30 03:52:51;;;;;;;3.38;0.95;;;6.70;99.90;;;;;;5095142;28;20036;-65
2022/05/30 03:55:20;;;;;;;4.60;1.10;;;6.70;99.90;;;;;;5095510;28;20447;-65
2022/05/30 03:57:45;;;;;;;2.92;0.80;;;6.70;99.90;;;;;;5096115;28;20045;-65
2022/05/30 04:00:18;;;;;;;4.50;0.50;;;6.60;99.90;;;;;;5089977;28;20494;-65
2022/05/30 04:02:47;;;;;;;3.00;0.70;;;6.60;99.90;;;;;;5089342;28;20032;-65
2022/05/30 04:05:13;;;;;;;4.35;1.27;;;6.60;99.90;;;;;;5077420;28;20042;-65
2022/05/30 04:07:39;;;;;;;2.95;1.10;;;6.60;99.90;;;;;;5097297;28;20040;-65
2022/05/30 04:10:05;;;;;;;3.22;0.93;;;6.70;99.90;;;;;;5109584;27;20048;-65
2022/05/30 04:12:30;;;;;;;4.90;0.90;;;6.80;99.90;;;;;;5089876;28;20044;-65
2022/05/30 04:14:59;;;;;;;6.28;1.00;;;6.90;99.90;;;;;;5092710;28;20050;-65
2022/05/30 04:17:25;;;;;;;2.75;0.60;;;6.90;99.90;;;;;;5071432;28;20501;-65
2022/05/30 04:19:51;;;;;;;5.22;0.85;;;7.00;99.90;;;;;;5073024;28;20069;-65
2022/05/30 04:22:18;;;;;;;3.13;0.90;;;7.00;99.90;;;;;;5096406;28;20474;-65
2022/05/30 04:24:44;;;;;;;3.05;0.60;;;7.20;99.90;;;;;;5074668;28;20035;-65
2022/05/30 04:27:09;;;;;;;2.50;0.70;;;7.50;99.90;;;;;;5074634;28;20054;-65
2022/05/30 04:29:36;;;;;;;2.45;0.75;;;8.10;99.90;;;;;;5109304;27;20036;-65
2022/05/30 04:32:03;;;;;;;2.28;0.40;;;8.80;99.90;;;;;;5070818;28;20040;-65
2022/05/30 04:34:30;;;;;;;4.35;0.70;;;10.10;99.90;;;;;;5083202;28;20031;-65
2022/05/30 04:36:56;;;;;;;4.80;0.77;;;11.10;99.90;;;;;;5068119;28;20076;-65
2022/05/30 04:39:22;;;;;;;4.22;0.32;;;12.20;99.90;;;;;;5072356;28;20112;-65
2022/05/30 04:41:48;;;;;;;2.90;0.40;;;12.60;99.90;;;;;;5073556;28;20078;-65
2022/05/30 04:44:14;;;;;;;2.45;0.40;;;13.10;99.90;;;;;;5094731;28;20059;-65
2022/05/30 04:46:40;;;;;;;3.00;0.43;;;13.90;99.90;;;;;;5076768;28;20125;-65
2022/05/30 04:49:05;;;;;;;2.42;0.30;;;13.70;99.90;;;;;;5099099;28;20371;-65
2022/05/30 04:51:31;;;;;;;1.35;0.40;;;13.30;99.90;;;;;;5115564;28;20120;-65
2022/05/30 04:53:56;;;;;;;1.48;0.65;;;12.90;99.90;;;;;;5105148;28;20044;-65
2022/05/30 04:56:22;;;;;;;2.53;0.50;;;12.50;99.90;;;;;;5073856;28;20044;-65
2022/05/30 04:58:50;;;;;;;5.13;1.35;;;12.00;99.90;;;;;;5068092;28;20061;-65
2022/05/30 05:01:17;;;;;;;5.32;0.40;;;11.70;99.90;;;;;;5089596;28;20112;-65
2022/05/30 05:03:44;;;;;;;4.15;0.52;;;11.40;99.90;;;;;;5067780;28;20039;-65
2022/05/30 05:06:09;;;;;;;1.35;0.43;;;11.10;99.90;;;;;;5090638;28;20040;-65
2022/05/30 05:09:04;;;;;;;4.35;1.02;;;10.90;99.90;;;;;;5077437;28;20036;-65
2022/05/30 05:11:32;;;;;;;3.40;0.57;;;10.80;99.90;;;;;;5076252;28;20047;-65
2022/05/30 05:13:58;;;;;;;2.63;0.98;;;10.60;99.90;;;;;;5089805;28;20387;-65
2022/05/30 05:16:26;;;;;;;4.07;0.60;;;10.80;99.90;;;;;;5069145;28;20124;-65
2022/05/30 05:18:53;;;;;;;2.42;0.52;;;10.90;99.90;;;;;;5069847;28;20505;-65
2022/05/30 05:21:22;;;;;;;4.57;0.80;;;11.00;99.90;;;;;;5093770;28;20147;-65
2022/05/30 05:23:48;;;;;;;3.13;0.60;;;11.20;99.90;;;;;;5089587;28;20037;-65
2022/05/30 05:26:15;;;;;;;2.40;0.50;;;11.30;99.90;;;;;;5053864;28;20041;-65
2022/05/30 05:28:41;;;;;;;4.20;0.60;;;11.20;99.90;;;;;;5071562;28;20429;-65
2022/05/30 05:31:08;;;;;;;5.80;1.15;;;11.30;99.90;;;;;;5082651;28;20077;-65
2022/05/30 05:33:35;;;;;;;3.90;1.15;;;11.40;99.90;;;;;;5095919;28;20089;-65
2022/05/30 05:36:00;;;;;;;4.05;0.77;;;11.50;99.90;;;;;;5074494;28;20140;-65
2022/05/30 05:38:26;;;;;;;5.18;0.52;;;11.70;99.90;;;;;;5109547;27;20452;-65
2022/05/30 05:40:52;;;;;;;6.35;0.90;;;11.90;99.90;;;;;;5080762;28;20058;-65
2022/05/30 05:43:19;;;;;;;5.25;1.13;;;12.00;99.90;;;;;;5071669;28;20049;-65
2022/05/30 05:45:46;;;;;;;4.47;0.80;;;12.20;99.90;;;;;;5096243;28;20048;-65
2022/05/30 05:48:12;;;;;;;5.15;0.82;;;12.20;99.90;;;;;;5101293;28;20072;-65
2022/05/30 05:50:39;;;;;;;5.07;1.00;;;12.30;99.90;;;;;;5073551;28;20494;-65
2022/05/30 05:53:05;;;;;;;6.63;0.98;;;12.20;99.90;;;;;;5073716;28;20672;-65
2022/05/30 05:55:30;;;;;;;7.90;0.90;;;12.30;99.90;;;;;;5090575;28;20409;-65
2022/05/30 05:57:56;;;;;;;5.20;1.20;;;12.20;99.90;;;;;;5072490;28;20051;-65
2022/05/30 06:00:22;;;;;;;6.07;0.80;;;12.40;99.90;;;;;;5112270;27;21816;-65
2022/05/30 06:02:48;;;;;;;6.60;0.80;;;12.40;99.90;;;;;;5111162;27;20051;-65
2022/05/30 06:05:13;;;;;;;4.93;0.98;;;12.30;99.90;;;;;;5092868;28;20525;-65
2022/05/30 06:07:41;;;;;;;2.15;0.50;;;12.40;99.90;;;;;;5083749;28;20040;-65
2022/05/30 06:10:09;;;;;;;4.03;0.95;;;12.40;99.90;;;;;;5106956;27;20075;-65
2022/05/30 06:12:42;;;;;;;6.22;0.50;;;12.50;99.90;;;;;;5070520;28;20075;-65
2022/05/30 06:15:13;;;;;;;3.90;0.70;;;12.60;99.90;;;;;;5077595;28;20084;-65
2022/05/30 06:17:40;;;;;;;5.75;0.88;;;12.70;99.90;;;;;;5055446;28;20079;-65
2022/05/30 06:20:08;;;;;;;3.63;1.08;;;12.90;99.90;;;;;;5070013;28;20093;-65
2022/05/30 06:22:34;;;;;;;3.05;0.60;;;13.00;99.90;;;;;;5090622;28;20078;-65
2022/05/30 06:25:00;;;;;;;3.45;0.57;;;13.20;99.90;;;;;;5070658;28;20154;-65
2022/05/30 06:27:26;;;;;;;5.80;0.70;;;13.20;99.90;;;;;;5071357;28;20494;-65
2022/05/30 06:29:55;;;;;;;2.75;0.60;;;13.30;99.90;;;;;;5099603;27;20047;-65
2022/05/30 06:32:21;;;;;;;2.35;0.50;;;13.30;99.90;;;;;;5089511;28;20036;-65
2022/05/30 06:34:47;;;;;;;3.42;0.50;;;13.30;99.90;;;;;;5083426;28;20042;-65
2022/05/30 06:37:14;;;;;;;3.03;0.52;;;13.40;99.90;;;;;;5092935;28;20486;-65
2022/05/30 06:39:40;;;;;;;3.70;0.77;;;13.40;99.90;;;;;;5091055;28;20035;-65
2022/05/30 06:42:10;;;;;;;2.47;0.45;;;13.50;99.90;;;;;;5092662;28;20024;-65
2022/05/30 06:44:36;;;;;;;3.67;0.30;;;13.50;99.90;;;;;;5087067;28;20052;-65
2022/05/30 06:47:07;;;;;;;2.75;0.30;;;13.60;99.90;;;;;;5090572;28;20055;-65
2022/05/30 06:49:33;;;;;;;3.55;0.35;;;13.70;99.90;;;;;;5089886;28;20561;-65
2022/05/30 06:52:00;;;;;;;2.25;0.40;;;13.80;99.90;;;;;;5090578;28;20040;-65
2022/05/30 06:54:26;;;;;;;3.03;0.30;;;13.70;99.90;;;;;;5099620;27;20410;-65
2022/05/30 06:59:36;;;;;;;3.28;0.40;;;13.70;99.90;;;;;;5089740;28;20502;-65
2022/05/30 07:02:04;;;;;;;4.68;0.95;;;13.90;99.90;;;;;;5071112;28;20047;-65
2022/05/30 07:04:31;;;;;;;1.67;0.30;;;13.90;99.90;;;;;;5071107;28;20161;-65
2022/05/30 07:06:57;;;;;;;1.25;0.20;;;14.10;99.90;;;;;;5073109;28;20039;-65
2022/05/30 07:09:22;;;;;;;1.08;0.30;;;14.10;99.90;;;;;;5090905;28;20082;-65
2022/05/30 07:11:49;;;;;;;1.83;0.20;;;14.30;99.90;;;;;;5087165;28;20032;-65
2022/05/30 07:14:16;;;;;;;1.80;0.30;;;14.40;99.90;;;;;;5069387;28;20181;-65
2022/05/30 07:16:43;;;;;;;1.30;0.22;;;14.60;99.90;;;;;;5066271;28;20044;-65
2022/05/30 07:19:09;;;;;;;1.70;0.40;;;14.80;99.90;;;;;;5068283;28;20040;-65
2022/05/30 07:21:36;;;;;;;2.42;0.38;;;14.90;99.90;;;;;;5088544;28;20529;-65
2022/05/30 07:24:03;;;;;;;1.20;0.30;;;15.00;99.90;;;;;;5080428;28;20032;-65
2022/05/30 07:26:29;;;;;;;3.95;0.20;;;15.10;99.90;;;;;;5086755;28;20070;-65
2022/05/30 07:28:55;;;;;;;2.47;0.20;;;15.40;99.90;;;;;;5086497;28;20060;-65
2022/05/30 07:31:25;;;;;;;2.65;0.15;;;15.60;99.90;;;;;;5069678;28;20048;-65
2022/05/30 07:33:51;;;;;;;2.28;0.28;;;15.90;99.90;;;;;;5082884;28;20047;-65
2022/05/30 07:36:26;;;;;;;1.85;0.17;;;16.30;99.90;;;;;;5088933;28;20114;-65
2022/05/30 07:38:53;;;;;;;1.83;0.10;;;16.40;99.90;;;;;;5087902;28;20074;-65
2022/05/30 07:41:20;;;;;;;1.73;0.22;;;16.50;99.90;;;;;;5090005;28;20039;-65
2022/05/30 07:43:46;;;;;;;1.10;0.30;;;16.60;99.90;;;;;;5073538;28;20039;-65
2022/05/30 07:46:14;;;;;;;0.98;0.20;;;16.70;99.90;;;;;;5087824;28;20048;-65
2022/05/30 07:48:40;;;;;;;1.00;0.22;;;16.80;99.90;;;;;;5066936;28;20036;-65
2022/05/30 07:51:11;;;;;;;3.45;0.28;;;16.90;99.90;;;;;;5089735;28;20032;-65
2022/05/30 07:53:39;;;;;;;2.05;0.10;;;16.60;99.90;;;;;;5068440;28;20075;-65
2022/05/30 07:56:09;;;;;;;1.48;0.10;;;16.70;99.90;;;;;;5067232;28;20173;-65
2022/05/30 07:58:36;;;;;;;3.03;0.13;;;16.80;99.90;;;;;;5069676;28;20043;-65
2022/05/30 08:01:04;;;;;;;0.88;0.20;;;16.90;99.90;;;;;;5069434;28;20522;-65
2022/05/30 08:03:30;;;;;;;1.38;0.20;;;16.90;99.90;;;;;;5088161;28;20040;-65
2022/05/30 08:06:08;;;;;;;0.80;0.15;;;16.70;99.90;;;;;;5070718;28;20034;-65
2022/05/30 08:08:33;;;;;;;1.00;0.30;;;16.50;99.90;;;;;;5083112;28;20061;-65
2022/05/30 08:10:59;;;;;;;1.48;0.20;;;16.20;99.90;;;;;;5070066;28;20044;-65
2022/05/30 08:13:25;;;;;;;0.45;0.15;;;16.00;99.90;;;;;;5063668;28;20059;-65
2022/05/30 08:15:51;;;;;;;1.50;0.30;;;15.70;99.90;;;;;;5066385;28;20048;-65
2022/05/30 08:18:18;;;;;;;1.35;0.38;;;15.30;99.90;;;;;;5070256;28;20044;-65
2022/05/30 08:20:44;;;;;;;4.15;0.25;;;15.00;99.90;;;;;;5090038;28;20170;-66
2022/05/30 08:23:11;;;;;;;1.80;0.20;;;14.70;99.90;;;;;;5091506;28;20482;-65
2022/05/30 08:25:39;;;;;;;3.25;0.43;;;14.30;99.90;;;;;;5083752;28;20417;-65
2022/05/30 08:28:05;;;;;;;1.10;0.20;;;14.00;99.90;;;;;;5099698;27;20041;-66
2022/05/30 08:30:31;;;;;;;0.75;0.20;;;13.80;99.90;;;;;;5102216;28;20051;-65
2022/05/30 08:32:57;;;;;;;6.10;0.10;;;13.60;99.90;;;;;;5100726;27;20047;-66
2022/05/30 08:35:23;;;;;;;1.73;0.30;;;13.40;99.90;;;;;;5100449;27;20748;-65
2022/05/30 08:37:50;;;;;;;0.65;0.10;;;13.30;99.90;;;;;;5091287;28;20040;-66
2022/05/30 08:43:11;;;;;;;0.60;0.10;;;13.30;99.90;;;;;;5088074;28;20383;-65
2022/05/30 08:45:38;;;;;;;2.22;0.10;;;13.20;99.90;;;;;;5067790;28;20044;-65
2022/05/30 08:48:13;;;;;;;0.50;0.10;;;13.30;99.90;;;;;;5099019;28;20044;-65
2022/05/30 08:51:17;;;;;;;1.13;0.32;;;13.20;99.90;;;;;;5083658;28;20051;-65
2022/05/30 08:53:58;;;;;;;2.10;0.43;;;13.30;99.90;;;;;;4992983;28;20107;-65
2022/05/30 08:56:29;;;;;;;3.53;0.10;;;13.40;99.90;;;;;;5066458;28;20097;-65
2022/05/30 08:59:20;;;;;;;0.50;0.10;;;13.40;99.90;;;;;;5078601;28;20069;-65
2022/05/30 09:02:05;;;;;;;1.23;0.10;;;13.50;99.90;;;;;;5089830;28;20095;-66
2022/05/30 09:04:39;;;;;;;1.00;0.30;;;13.70;99.90;;;;;;5072005;28;20040;-65
2022/05/30 09:07:09;;;;;;;0.50;0.17;;;13.80;99.90;;;;;;5070937;28;20050;-65
2022/05/30 09:10:02;;;;;;;0.88;0.20;;;13.90;99.90;;;;;;5090952;28;20119;-65
2022/05/30 09:12:49;;;;;;;1.98;0.20;;;14.20;99.90;;;;;;5090494;28;20040;-65
2022/05/30 09:15:15;;;;;;;3.22;0.20;;;14.50;99.90;;;;;;5072297;28;20036;-65
2022/05/30 09:17:50;;;;;;;1.83;0.35;;;15.10;99.90;;;;;;5092166;28;20071;-65
2022/05/30 09:20:18;;;;;;;0.10;0.03;;;14.80;99.90;;;;;;5091490;28;20095;-65
2022/05/30 09:22:45;;;;;;;0.43;0.10;;;14.90;99.90;;;;;;5070890;28;20834;-65
2022/05/30 09:28:00;;;;;;;0.30;0.10;;;15.60;99.90;;;;;;5101215;27;20040;-65
2022/05/30 09:30:35;;;;;;;1.10;0.10;;;15.90;99.90;;;;;;5091078;28;20036;-65
2022/05/30 09:33:34;;;;;;;1.73;0.73;;;16.20;99.90;;;;;;5110870;27;20554;-65
2022/05/30 09:36:11;;;;;;;0.20;0.00;;;16.50;99.90;;;;;;5069628;28;20366;-65
2022/05/30 09:38:42;;;;;;;0.43;0.10;;;16.80;99.90;;;;;;5103427;27;20102;-65
2022/05/30 09:41:14;;;;;;;0.52;0.28;;;17.10;99.90;;;;;;5090229;28;20054;-65
2022/05/30 09:43:45;;;;;;;0.85;0.10;;;17.30;99.90;;;;;;5094318;28;20045;-65
2022/05/30 09:46:21;;;;;;;1.20;0.20;;;17.50;99.90;;;;;;5072401;28;20040;-65
2022/05/30 09:49:02;;;;;;;0.82;0.25;;;17.40;99.90;;;;;;5073855;28;20047;-65
2022/05/30 09:51:32;;;;;;;0.52;0.10;;;17.40;99.90;;;;;;5104277;27;20141;-66
2022/05/30 09:53:57;;;;;;;3.35;0.35;;;17.50;99.90;;;;;;5105281;27;20134;-65
2022/05/30 09:56:26;;;;;;;0.57;0.10;;;17.30;99.90;;;;;;5066342;28;20085;-66
2022/05/30 09:59:13;;;;;;;1.52;0.20;;;17.10;99.90;;;;;;5089871;28;20043;-66
2022/05/30 10:01:39;;;;;;;0.85;0.20;;;16.80;99.90;;;;;;5080942;28;20057;-66
2022/05/30 10:04:34;;;;;;;0.77;0.20;;;16.50;99.90;;;;;;5072837;28;20036;-66
2022/05/30 10:07:15;;;;;;;2.35;0.20;;;16.40;99.90;;;;;;5070133;28;20163;-66
2022/05/30 10:09:56;;;;;;;1.50;0.17;;;16.20;99.90;;;;;;5106074;27;20059;-66
2022/05/30 10:12:27;;;;;;;0.93;0.13;;;15.90;99.90;;;;;;5090537;28;20045;-66
2022/05/30 10:14:53;;;;;;;1.75;0.10;;;15.70;99.90;;;;;;5053476;28;20122;-66
2022/05/30 10:17:29;;;;;;;0.95;0.15;;;15.50;99.90;;;;;;5093984;28;20142;-66
2022/05/30 10:19:56;;;;;;;2.22;0.20;;;15.20;99.90;;;;;;5088536;28;20123;-66
2022/05/30 10:28:20;;;;;;;0.75;0.10;;;14.80;99.90;;;;;;5069497;28;20047;-66
2022/05/30 10:30:53;;;;;;;2.53;0.10;;;14.70;99.90;;;;;;5073539;28;20486;-66
2022/05/30 10:33:54;;;;;;;3.22;0.47;;;14.60;99.90;;;;;;5074327;28;20048;-66
2022/05/30 10:36:57;;;;;;;0.55;0.17;;;14.60;99.90;;;;;;5092378;28;20040;-66
2022/05/30 10:39:35;;;;;;;0.75;0.20;;;14.60;99.90;;;;;;5091886;28;20126;-66
2022/05/30 10:42:23;;;;;;;1.98;0.10;;;14.40;99.90;;;;;;5086204;28;20051;-66
2022/05/30 10:44:59;;;;;;;0.80;0.10;;;14.30;99.90;;;;;;5092709;28;20063;-66
2022/05/30 10:47:35;;;;;;;1.30;0.22;;;14.40;99.90;;;;;;5102650;27;20123;-66
2022/05/30 10:50:13;;;;;;;1.98;0.20;;;14.30;99.90;;;;;;5075547;28;20667;-66
2022/05/30 10:52:58;;;;;;;1.23;0.20;;;14.50;99.90;;;;;;5107332;27;20460;-66
2022/05/30 10:55:34;;;;;;;1.73;0.10;;;14.70;99.90;;;;;;5066722;28;20035;-66
2022/05/30 10:58:01;;;;;;;;;;;15.00;99.90;;;;;;5068819;28;20051;-66
2022/05/30 11:00:36;;;;;;;0.65;0.10;;;15.20;99.90;;;;;;5085655;28;20797;-66
2022/05/30 11:03:35;;;;;;;0.50;0.10;;;15.40;99.90;;;;;;5071137;28;20046;-66
2022/05/30 11:06:10;;;;;;;1.90;0.10;;;15.60;99.90;;;;;;5074855;28;20035;-66
2022/05/30 11:08:49;;;;;;;3.10;0.43;;;15.60;99.90;;;;;;5071665;28;20066;-66
2022/05/30 11:11:41;;;;;;;1.35;0.20;;;15.60;99.90;;;;;;5088499;28;20393;-66
2022/05/30 11:14:24;;;;;;;2.17;0.20;;;15.40;99.90;;;;;;5091201;28;20047;-66
2022/05/30 11:17:02;;;;;;;1.90;0.30;;;15.20;99.90;;;;;;5072177;28;20040;-66
2022/05/30 11:19:45;;;;;;;2.90;0.20;;;15.10;99.90;;;;;;5074733;28;20044;-66
2022/05/30 11:22:11;;;;;;;1.15;0.20;;;15.10;99.90;;;;;;5091321;28;20044;-66
2022/05/30 11:24:39;;;;;;;2.42;0.25;;;15.00;99.90;;;;;;5087613;28;20048;-66
2022/05/30 11:27:20;;;;;;;0.98;0.22;;;15.00;99.90;;;;;;5080059;28;20040;-66
2022/05/30 11:29:58;;;;;;;1.65;0.20;;;14.90;99.90;;;;;;5071879;28;20435;-66
2022/05/30 11:32:45;;;;;;;1.95;0.30;;;14.80;99.90;;;;;;5069233;28;20036;-66
2022/05/30 11:35:36;;;;;;;1.80;0.25;;;14.80;99.90;;;;;;5088431;28;20131;-66
2022/05/30 11:38:35;;;;;;;1.10;0.20;;;14.60;99.90;;;;;;5103451;27;20070;-66
2022/05/30 11:41:18;;;;;;;1.83;0.28;;;14.40;99.90;;;;;;5085130;28;20048;-66
2022/05/30 11:44:17;;;;;;;3.10;0.20;;;14.30;99.90;;;;;;5104030;27;20024;-66
2022/05/30 11:46:54;;;;;;;1.52;0.28;;;14.20;99.90;;;;;;5083068;28;20075;-66
2022/05/30 11:49:32;;;;;;;1.05;0.20;;;14.00;99.90;;;;;;5068362;28;20408;-66
2022/05/30 11:52:13;;;;;;;1.45;0.68;;;13.90;99.90;;;;;;5085923;28;20441;-66
2022/05/30 11:54:53;;;;;;;2.92;0.55;;;13.70;99.90;;;;;;5069274;28;20074;-66
2022/05/30 11:57:40;;;;;;;2.83;0.30;;;13.60;99.90;;;;;;5065246;28;20058;-66
2022/05/30 12:00:24;;;;;;;2.67;0.45;;;13.50;99.90;;;;;;5088042;28;20051;-66
2022/05/30 12:03:29;;;;;;;2.63;0.20;;;13.40;99.90;;;;;;5068012;28;20036;-66
2022/05/30 12:06:10;;;;;;;2.60;0.30;;;13.30;99.90;;;;;;5068178;28;20047;-66
2022/05/30 12:09:06;;;;;;;3.45;0.43;;;13.20;99.90;;;;;;5101251;27;20039;-66
2022/05/30 12:12:13;;;;;;;3.25;0.50;;;13.20;99.90;;;;;;5089175;28;20051;-66
2022/05/30 12:15:17;;;;;;;1.50;0.30;;;13.20;99.90;;;;;;5081736;28;20083;-66
2022/05/30 12:23:48;;;;;;;1.20;0.22;;;13.10;99.90;;;;;;5092609;28;20686;-66
2022/05/30 12:26:14;;;;;;;1.55;0.32;;;13.10;99.90;;;;;;5070491;28;20036;-66
2022/05/30 12:28:39;;;;;;;2.30;0.20;;;13.20;99.90;;;;;;5085892;28;21071;-66
2022/05/30 12:31:07;;;;;;;2.22;0.20;;;13.30;99.90;;;;;;5087238;28;20046;-66
2022/05/30 12:33:33;;;;;;;2.78;0.20;;;13.50;99.90;;;;;;5057520;28;20048;-66
2022/05/30 12:36:08;;;;;;;6.57;0.63;;;13.60;99.90;;;;;;5088963;28;20102;-66
2022/05/30 12:38:58;;;;;;;1.85;0.32;;;13.80;99.90;;;;;;5073064;28;20381;-66
2022/05/30 12:41:29;;;;;;;1.23;0.30;;;13.90;99.90;;;;;;5104208;27;20044;-66
2022/05/30 12:43:55;;;;;;;3.28;0.52;;;14.00;99.90;;;;;;5090542;28;20080;-66
2022/05/30 12:46:24;;;;;;;0.90;0.47;;;14.20;99.90;;;;;;5073983;28;20050;-66
2022/05/30 12:49:15;;;;;;;2.92;0.30;;;14.30;99.90;;;;;;5089435;28;20044;-66
2022/05/30 12:52:04;;;;;;;3.03;0.40;;;14.50;99.90;;;;;;5088810;28;20104;-66
2022/05/30 12:55:03;;;;;;;3.83;0.70;;;14.80;99.90;;;;;;5087646;28;20133;-66
2022/05/30 12:57:36;;;;;;;1.40;0.22;;;15.10;99.90;;;;;;5073091;28;20044;-66
2022/05/30 13:00:14;;;;;;;1.20;0.30;;;15.30;99.90;;;;;;5053096;28;20044;-66
2022/05/30 13:02:59;;;;;;;1.38;0.17;;;15.40;99.90;;;;;;5071119;28;20043;-66
2022/05/30 13:05:44;;;;;;;1.45;0.25;;;15.40;99.90;;;;;;5069566;28;20044;-66
2022/05/30 13:08:47;;;;;;;1.38;0.20;;;15.30;99.90;;;;;;5085333;28;20117;-65
2022/05/30 13:11:29;;;;;;;2.38;0.20;;;15.20;99.90;;;;;;5089462;28;20047;-66
2022/05/30 13:14:02;;;;;;;2.70;0.43;;;15.10;99.90;;;;;;5102418;28;20044;-66
2022/05/30 13:16:39;;;;;;;1.95;0.20;;;15.00;99.90;;;;;;5088276;28;20171;-66
2022/05/30 13:19:06;;;;;;;1.38;0.20;;;14.90;99.90;;;;;;5064622;28;20092;-66
2022/05/30 13:21:31;;;;;;;1.20;0.20;;;14.90;99.90;;;;;;5069507;28;20075;-66
2022/05/30 13:23:59;;;;;;;1.55;0.43;;;14.80;99.90;;;;;;5083245;28;20072;-65
2022/05/30 13:26:31;;;;;;;0.50;0.10;;;14.80;99.90;;;;;;5092752;28;20039;-66
2022/05/30 13:29:00;;;;;;;1.15;0.15;;;14.80;99.90;;;;;;5103522;28;20044;-66
2022/05/30 13:31:28;;;;;;;1.90;0.38;;;14.70;99.90;;;;;;5083774;28;20173;-66
2022/05/30 13:33:54;;;;;;;1.30;0.20;;;14.70;99.90;;;;;;5090399;28;20039;-66
2022/05/30 13:36:25;;;;;;;2.75;0.20;;;14.70;99.90;;;;;;5072417;28;20499;-66